Time;durP1;ratioP1;P1;durP2;ratioP2;P2;SDS_P1;SDS_P2;PMS_P1;PMS_P2;Temp;Humidity;BMP_temperature;BMP_pressure;BME280_temperature;BME280_humidity;BME280_pressure;Samples;Min_cycle;Max_cycle;Signal;HPM_P1;HPM_P2
2022/09/24 00:02:03;;;;;;;6.93;6.30;;;16.50;99.90;;;;;;5002452;28;20213;-73
2022/09/24 00:04:30;;;;;;;6.73;6.10;;;16.50;99.90;;;;;;4998810;28;20199;-74
2022/09/24 00:06:56;;;;;;;7.47;6.60;;;16.50;99.90;;;;;;5000477;28;20440;-73
2022/09/24 00:09:21;;;;;;;8.37;6.60;;;16.50;99.90;;;;;;5004520;28;20486;-73
2022/09/24 00:11:51;;;;;;;7.43;6.63;;;16.50;99.90;;;;;;5007752;28;20218;-71
2022/09/24 00:14:17;;;;;;;7.17;6.47;;;16.60;99.90;;;;;;4998882;28;20185;-72
2022/09/24 00:16:44;;;;;;;7.60;6.80;;;16.60;99.90;;;;;;5003020;28;20422;-71
2022/09/24 00:19:11;;;;;;;7.93;7.23;;;16.60;99.90;;;;;;4994170;28;20436;-73
2022/09/24 00:21:46;;;;;;;9.00;6.33;;;16.50;99.90;;;;;;5001744;28;20468;-71
2022/09/24 00:27:01;;;;;;;10.00;6.17;;;16.50;99.90;;;;;;4995841;28;20490;-72
2022/09/24 00:29:34;;;;;;;7.57;6.77;;;16.50;99.90;;;;;;4991489;28;20507;-73
2022/09/24 00:32:00;;;;;;;7.27;6.57;;;16.50;99.90;;;;;;4998331;28;20465;-73
2022/09/24 00:34:26;;;;;;;7.47;6.67;;;16.50;99.90;;;;;;4995026;28;20506;-72
2022/09/24 00:36:52;;;;;;;9.93;6.60;;;16.50;99.90;;;;;;4997238;28;20428;-72
2022/09/24 00:39:21;;;;;;;8.40;6.50;;;16.50;99.90;;;;;;4976924;28;20907;-72
2022/09/24 00:41:47;;;;;;;10.93;6.47;;;16.50;99.90;;;;;;4990388;28;20214;-72
2022/09/24 00:44:44;;;;;;;6.93;6.10;;;16.40;99.90;;;;;;4992290;28;20459;-73
2022/09/24 00:47:22;;;;;;;7.93;6.60;;;16.40;99.90;;;;;;5000801;28;20450;-72
2022/09/24 00:49:49;;;;;;;7.83;6.83;;;16.40;99.90;;;;;;5000417;28;21418;-72
2022/09/24 00:52:15;;;;;;;6.73;6.03;;;16.40;99.90;;;;;;4993484;28;20507;-73
2022/09/24 00:54:43;;;;;;;8.00;6.70;;;16.40;99.90;;;;;;4993310;28;20507;-74
2022/09/24 00:57:09;;;;;;;7.40;6.70;;;16.30;99.90;;;;;;4995477;28;20892;-73
2022/09/24 00:59:35;;;;;;;9.80;7.00;;;16.30;99.90;;;;;;4993563;28;20531;-74
2022/09/24 01:02:04;;;;;;;11.50;7.17;;;16.30;99.90;;;;;;4991538;28;20502;-73
2022/09/24 01:04:30;;;;;;;8.70;6.80;;;16.30;99.90;;;;;;4997717;28;20479;-73
2022/09/24 01:06:56;;;;;;;7.00;6.30;;;16.20;99.90;;;;;;4998568;28;20607;-73
2022/09/24 01:09:26;;;;;;;8.13;7.30;;;16.20;99.90;;;;;;4993696;28;20471;-73
2022/09/24 01:12:09;;;;;;;8.90;7.67;;;16.20;99.90;;;;;;5002443;28;20451;-72
2022/09/24 01:14:41;;;;;;;9.60;8.40;;;16.20;99.90;;;;;;4998737;28;20525;-73
2022/09/24 01:17:36;;;;;;;12.60;7.83;;;16.10;99.90;;;;;;4996984;28;20674;-72
2022/09/24 01:20:39;;;;;;;8.67;7.40;;;16.10;99.90;;;;;;4950911;28;20475;-72
2022/09/24 01:23:23;;;;;;;14.80;8.50;;;16.10;99.90;;;;;;5001113;28;20433;-72
2022/09/24 01:25:58;;;;;;;10.70;8.50;;;16.00;99.90;;;;;;4998766;28;20960;-72
2022/09/24 01:29:04;;;;;;;9.43;8.30;;;16.00;99.90;;;;;;4995015;28;20455;-72
2022/09/24 01:31:42;;;;;;;11.60;8.50;;;15.90;99.90;;;;;;5003115;28;20458;-73
2022/09/24 01:34:11;;;;;;;9.60;8.60;;;15.90;99.90;;;;;;4992337;28;21022;-73
2022/09/24 01:36:38;;;;;;;13.13;8.20;;;15.80;99.90;;;;;;4995566;28;21002;-72
2022/09/24 01:39:07;;;;;;;13.60;9.10;;;15.70;99.90;;;;;;4999059;28;20440;-73
2022/09/24 01:41:33;;;;;;;10.13;7.83;;;15.70;99.90;;;;;;4994913;28;20495;-72
2022/09/24 01:44:02;;;;;;;11.83;8.60;;;15.70;99.90;;;;;;4995726;28;20483;-70
2022/09/24 01:46:28;;;;;;;10.17;9.10;;;15.70;99.90;;;;;;4993964;28;20499;-72
2022/09/24 01:48:54;;;;;;;10.10;8.30;;;15.60;99.90;;;;;;4989840;28;20460;-72
2022/09/24 01:51:27;;;;;;;10.50;9.07;;;15.60;99.90;;;;;;4987072;28;20865;-72
2022/09/24 01:54:00;;;;;;;10.50;8.73;;;15.50;99.90;;;;;;4996075;28;20250;-72
2022/09/24 01:56:43;;;;;;;10.20;8.40;;;15.50;99.90;;;;;;4996457;28;20439;-73
2022/09/24 01:59:15;;;;;;;13.43;8.80;;;15.50;99.90;;;;;;5001419;28;21214;-72
2022/09/24 02:01:55;;;;;;;9.10;8.20;;;15.40;99.90;;;;;;4999263;28;20471;-72
2022/09/24 02:04:27;;;;;;;10.80;8.97;;;15.40;99.90;;;;;;4983788;28;20436;-73
2022/09/24 02:07:12;;;;;;;11.40;9.43;;;15.30;99.90;;;;;;4997028;28;20491;-72
2022/09/24 02:09:41;;;;;;;10.77;7.80;;;15.30;99.90;;;;;;4993518;28;20542;-72
2022/09/24 02:12:28;;;;;;;7.80;7.00;;;15.40;99.90;;;;;;4999123;28;20432;-72
2022/09/24 02:15:00;;;;;;;6.70;6.00;;;15.30;99.90;;;;;;4986716;28;20439;-71
2022/09/24 02:17:31;;;;;;;10.17;7.40;;;15.30;99.90;;;;;;5002782;28;20429;-72
2022/09/24 02:20:02;;;;;;;6.10;5.50;;;15.30;99.90;;;;;;5003079;28;20429;-72
2022/09/24 02:22:29;;;;;;;7.13;6.47;;;15.20;99.90;;;;;;5005887;28;20467;-72
2022/09/24 02:25:02;;;;;;;10.10;7.50;;;15.30;99.90;;;;;;5000632;28;20502;-72
2022/09/24 02:27:28;;;;;;;8.40;7.60;;;15.30;99.90;;;;;;5002003;28;20437;-72
2022/09/24 02:29:56;;;;;;;8.23;7.23;;;15.20;99.90;;;;;;5002027;28;20470;-73
2022/09/24 02:32:24;;;;;;;8.20;6.97;;;15.20;99.90;;;;;;4993341;28;20299;-73
2022/09/24 02:34:54;;;;;;;8.30;7.50;;;15.20;99.90;;;;;;4992449;28;20437;-73
2022/09/24 02:37:23;;;;;;;10.90;7.87;;;15.20;99.90;;;;;;4993902;28;20471;-73
2022/09/24 02:39:50;;;;;;;9.60;8.60;;;15.10;99.90;;;;;;4998887;28;20494;-73
2022/09/24 02:42:18;;;;;;;9.20;8.20;;;15.10;99.90;;;;;;4999445;28;20452;-72
2022/09/24 02:44:46;;;;;;;8.70;7.37;;;15.10;99.90;;;;;;5006024;28;20459;-72
2022/09/24 02:47:12;;;;;;;8.87;7.57;;;15.10;99.90;;;;;;5001782;28;20543;-74
2022/09/24 02:49:40;;;;;;;10.10;7.60;;;15.10;99.90;;;;;;4994991;28;21202;-72
2022/09/24 02:52:06;;;;;;;9.73;6.90;;;15.10;99.90;;;;;;4991804;28;20452;-71
2022/09/24 02:54:33;;;;;;;9.70;8.00;;;15.00;99.90;;;;;;4994909;28;20861;-72
2022/09/24 02:56:58;;;;;;;8.73;7.10;;;14.90;99.90;;;;;;4998942;28;20182;-72
2022/09/24 02:59:24;;;;;;;9.70;7.20;;;14.90;99.90;;;;;;4997815;28;20977;-73
2022/09/24 03:01:53;;;;;;;8.83;7.00;;;14.90;99.90;;;;;;4993135;28;20267;-73
2022/09/24 03:04:18;;;;;;;9.70;7.37;;;14.90;99.90;;;;;;4996244;28;20213;-73
2022/09/24 03:06:53;;;;;;;7.80;7.00;;;14.90;99.90;;;;;;4994383;28;20963;-71
2022/09/24 03:09:19;;;;;;;12.07;7.80;;;14.90;99.90;;;;;;4992426;28;20215;-72
2022/09/24 03:11:46;;;;;;;8.43;7.37;;;15.00;99.90;;;;;;4997702;28;20876;-73
2022/09/24 03:14:12;;;;;;;8.20;7.40;;;15.00;99.90;;;;;;4996574;28;20185;-74
2022/09/24 03:16:38;;;;;;;11.50;7.93;;;15.00;99.90;;;;;;5000452;28;21042;-74
2022/09/24 03:19:04;;;;;;;9.40;7.27;;;15.10;99.90;;;;;;4997722;28;20185;-72
2022/09/24 03:21:30;;;;;;;11.33;7.93;;;15.00;99.90;;;;;;4993364;28;20492;-71
2022/09/24 03:23:59;;;;;;;9.33;7.50;;;15.00;99.90;;;;;;4995599;28;20467;-72
2022/09/24 03:26:25;;;;;;;7.30;6.60;;;14.90;99.90;;;;;;4993698;28;20193;-71
2022/09/24 03:28:52;;;;;;;7.90;6.40;;;14.80;99.90;;;;;;5002863;28;20502;-73
2022/09/24 03:31:18;;;;;;;8.10;7.30;;;14.70;99.90;;;;;;5002742;28;20455;-72
2022/09/24 03:33:48;;;;;;;9.50;7.57;;;14.70;99.90;;;;;;4992933;28;20437;-73
2022/09/24 03:36:24;;;;;;;9.30;7.23;;;14.80;99.90;;;;;;4996065;28;20828;-73
2022/09/24 03:38:55;;;;;;;8.00;7.10;;;14.80;99.90;;;;;;4999945;28;20862;-73
2022/09/24 03:41:23;;;;;;;10.10;6.80;;;14.80;99.90;;;;;;4997275;28;20846;-73
2022/09/24 03:43:48;;;;;;;7.80;6.87;;;14.70;99.90;;;;;;5000612;28;20478;-73
2022/09/24 03:46:16;;;;;;;8.40;7.40;;;14.60;99.90;;;;;;5003493;28;20453;-74
2022/09/24 03:48:42;;;;;;;8.63;6.47;;;14.60;99.90;;;;;;5001206;28;20208;-72
2022/09/24 03:51:13;;;;;;;7.57;6.70;;;14.60;99.90;;;;;;5001316;28;20471;-72
2022/09/24 03:53:39;;;;;;;8.77;7.20;;;14.70;99.90;;;;;;5003503;28;20424;-72
2022/09/24 03:56:06;;;;;;;9.23;7.33;;;14.60;99.90;;;;;;5000528;28;20452;-73
2022/09/24 03:58:37;;;;;;;8.10;6.50;;;14.60;99.90;;;;;;4999706;28;20490;-73
2022/09/24 04:01:07;;;;;;;7.97;7.17;;;14.50;99.90;;;;;;5003354;28;20440;-73
2022/09/24 04:03:35;;;;;;;9.70;7.40;;;14.40;99.90;;;;;;5000581;28;20544;-74
2022/09/24 04:06:01;;;;;;;7.90;7.20;;;14.40;99.90;;;;;;4996541;28;20449;-73
2022/09/24 04:08:27;;;;;;;9.63;8.17;;;14.40;99.90;;;;;;4999662;28;21431;-72
2022/09/24 04:10:54;;;;;;;10.93;8.20;;;14.40;99.90;;;;;;4995973;28;20979;-73
2022/09/24 04:13:20;;;;;;;8.20;6.63;;;14.40;99.90;;;;;;4995356;28;20440;-73
2022/09/24 04:15:47;;;;;;;11.13;8.33;;;14.40;99.90;;;;;;4994309;28;20549;-72
2022/09/24 04:18:13;;;;;;;9.57;8.57;;;14.40;99.90;;;;;;4997904;28;20243;-72
2022/09/24 04:20:40;;;;;;;9.70;8.47;;;14.40;99.90;;;;;;4994364;28;20432;-72
2022/09/24 04:23:06;;;;;;;9.63;8.23;;;14.40;99.90;;;;;;4996965;28;20511;-71
2022/09/24 04:25:33;;;;;;;10.33;8.07;;;14.50;99.90;;;;;;5001658;28;20433;-72
2022/09/24 04:28:05;;;;;;;8.83;6.73;;;14.40;99.90;;;;;;4996134;28;20436;-72
2022/09/24 04:30:33;;;;;;;8.23;7.00;;;14.50;99.90;;;;;;4998406;28;20448;-71
2022/09/24 04:32:59;;;;;;;8.43;7.63;;;14.50;99.90;;;;;;4993255;28;20568;-72
2022/09/24 04:35:28;;;;;;;7.87;7.00;;;14.50;99.90;;;;;;5000871;28;20501;-71
2022/09/24 04:37:59;;;;;;;9.37;7.43;;;14.50;99.90;;;;;;4996625;28;20428;-72
2022/09/24 04:40:25;;;;;;;8.83;7.43;;;14.50;99.90;;;;;;5003317;28;20479;-73
2022/09/24 04:42:51;;;;;;;14.43;8.70;;;14.50;99.90;;;;;;4996088;28;20547;-72
2022/09/24 04:45:18;;;;;;;8.27;7.47;;;14.60;99.90;;;;;;4992374;28;20559;-73
2022/09/24 04:47:54;;;;;;;9.20;7.57;;;14.60;99.90;;;;;;4999410;28;20660;-73
2022/09/24 04:50:21;;;;;;;9.17;7.43;;;14.60;99.90;;;;;;4993810;28;21033;-73
2022/09/24 04:52:47;;;;;;;8.70;7.80;;;14.60;99.90;;;;;;4997682;28;20464;-73
2022/09/24 04:55:13;;;;;;;10.87;7.77;;;14.60;99.90;;;;;;4989017;28;21164;-73
2022/09/24 04:57:40;;;;;;;10.80;7.40;;;14.60;99.90;;;;;;4987452;28;20538;-73
2022/09/24 05:00:11;;;;;;;8.40;7.60;;;14.60;99.90;;;;;;4993598;28;20447;-72
2022/09/24 05:02:37;;;;;;;8.93;8.13;;;14.60;99.90;;;;;;4996224;28;21093;-73
2022/09/24 05:05:03;;;;;;;8.17;7.33;;;14.60;99.90;;;;;;4993489;28;20435;-73
2022/09/24 05:07:29;;;;;;;9.10;7.50;;;14.60;99.90;;;;;;5000406;28;20208;-73
2022/09/24 05:09:55;;;;;;;8.60;7.70;;;14.60;99.90;;;;;;4994251;28;20837;-73
2022/09/24 05:12:21;;;;;;;7.97;7.17;;;14.60;99.90;;;;;;4999250;28;20201;-74
2022/09/24 05:14:47;;;;;;;13.53;7.97;;;14.50;99.90;;;;;;5003497;28;20416;-73
2022/09/24 05:17:14;;;;;;;9.33;7.67;;;14.50;99.90;;;;;;4999653;28;20596;-72
2022/09/24 05:19:40;;;;;;;12.40;7.27;;;14.50;99.90;;;;;;5002378;28;20488;-73
2022/09/24 05:22:05;;;;;;;8.53;7.60;;;14.50;99.90;;;;;;4998228;28;20542;-73
2022/09/24 05:24:31;;;;;;;9.30;7.60;;;14.60;99.90;;;;;;5002465;28;20277;-73
2022/09/24 05:27:09;;;;;;;11.60;8.23;;;14.50;99.90;;;;;;5005299;28;20537;-72
2022/09/24 05:29:39;;;;;;;9.20;7.67;;;14.60;99.90;;;;;;5001311;28;20311;-73
2022/09/24 05:32:07;;;;;;;10.23;7.87;;;14.50;99.90;;;;;;4999815;28;20475;-72
2022/09/24 05:34:33;;;;;;;8.63;7.60;;;14.50;99.90;;;;;;4997997;28;20462;-73
2022/09/24 05:37:00;;;;;;;8.73;7.73;;;14.50;99.90;;;;;;5000522;28;20431;-72
2022/09/24 05:39:27;;;;;;;8.50;7.70;;;14.60;99.90;;;;;;4998922;28;20446;-73
2022/09/24 05:41:52;;;;;;;8.20;7.40;;;14.60;99.90;;;;;;4998543;28;20460;-71
2022/09/24 05:44:20;;;;;;;8.93;8.03;;;14.70;99.90;;;;;;4990444;28;20461;-74
2022/09/24 05:46:50;;;;;;;10.10;8.50;;;14.70;99.90;;;;;;4990830;28;20502;-72
2022/09/24 05:49:21;;;;;;;8.80;7.97;;;14.70;99.90;;;;;;4993958;28;20777;-72
2022/09/24 05:51:51;;;;;;;11.00;8.40;;;14.70;99.90;;;;;;4998151;28;20487;-72
2022/09/24 05:54:18;;;;;;;8.13;7.13;;;14.70;99.90;;;;;;4990053;28;20556;-70
2022/09/24 05:56:49;;;;;;;8.43;7.60;;;14.70;99.90;;;;;;4996903;28;20895;-71
2022/09/24 05:59:15;;;;;;;9.23;7.73;;;14.80;99.90;;;;;;4991303;28;20950;-70
2022/09/24 06:01:46;;;;;;;8.70;7.70;;;14.80;99.90;;;;;;4996378;28;20475;-72
2022/09/24 06:04:15;;;;;;;9.37;7.63;;;14.80;99.90;;;;;;4994852;28;20661;-73
2022/09/24 06:06:47;;;;;;;16.13;11.33;;;14.80;99.90;;;;;;4992611;28;20472;-72
2022/09/24 06:09:18;;;;;;;8.77;7.87;;;14.80;99.90;;;;;;4995999;28;20474;-75
2022/09/24 06:11:49;;;;;;;9.30;8.30;;;14.90;99.90;;;;;;4997072;28;20460;-75
2022/09/24 06:14:15;;;;;;;9.77;8.77;;;14.90;99.90;;;;;;4993250;28;20435;-69
2022/09/24 06:16:41;;;;;;;10.20;8.00;;;14.90;99.90;;;;;;4992783;28;21038;-72
2022/09/24 06:19:07;;;;;;;9.90;8.23;;;15.00;99.90;;;;;;5001830;28;20236;-71
2022/09/24 06:21:33;;;;;;;18.33;9.03;;;15.00;99.90;;;;;;5002875;28;20237;-70
2022/09/24 06:23:58;;;;;;;10.50;8.10;;;15.00;99.90;;;;;;4994273;28;20198;-70
2022/09/24 06:26:25;;;;;;;11.00;8.43;;;15.10;99.90;;;;;;4990632;28;20935;-69
2022/09/24 06:28:50;;;;;;;9.17;7.80;;;15.10;99.90;;;;;;4991500;28;20320;-72
2022/09/24 06:31:16;;;;;;;8.63;7.70;;;15.10;99.90;;;;;;4999890;28;20540;-73
2022/09/24 06:33:42;;;;;;;14.63;9.03;;;15.20;99.90;;;;;;4998130;28;20196;-73
2022/09/24 06:36:08;;;;;;;10.60;7.63;;;15.20;99.90;;;;;;4994686;28;20185;-73
2022/09/24 06:38:34;;;;;;;10.17;9.13;;;15.20;99.90;;;;;;4993256;28;20403;-73
2022/09/24 06:41:02;;;;;;;8.87;8.00;;;15.30;99.90;;;;;;4992362;28;21002;-74
2022/09/24 06:43:32;;;;;;;10.00;8.20;;;15.20;99.90;;;;;;4996712;28;20420;-73
2022/09/24 06:45:59;;;;;;;10.13;8.90;;;15.30;99.90;;;;;;4998275;28;20985;-74
2022/09/24 06:48:26;;;;;;;8.93;8.03;;;15.40;99.90;;;;;;4991436;28;20511;-69
2022/09/24 06:50:53;;;;;;;11.27;10.13;;;15.30;99.90;;;;;;4994748;28;20437;-73
2022/09/24 06:53:19;;;;;;;11.13;9.87;;;15.30;99.90;;;;;;4991376;28;20478;-72
2022/09/24 06:55:45;;;;;;;11.53;9.20;;;15.30;99.90;;;;;;4997166;28;20614;-76
2022/09/24 06:58:14;;;;;;;12.40;9.23;;;15.30;99.90;;;;;;5003279;28;20515;-74
2022/09/24 07:00:41;;;;;;;10.97;9.83;;;15.30;99.90;;;;;;4989678;28;20437;-75
2022/09/24 07:03:12;;;;;;;10.23;8.93;;;15.30;99.90;;;;;;4992552;28;20460;-73
2022/09/24 07:05:41;;;;;;;12.20;8.80;;;15.40;99.90;;;;;;4995364;28;20476;-72
2022/09/24 07:08:07;;;;;;;10.40;9.40;;;15.50;99.90;;;;;;4994324;28;21060;-72
2022/09/24 07:10:33;;;;;;;14.77;9.63;;;15.60;99.90;;;;;;4983288;28;20531;-70
2022/09/24 07:12:59;;;;;;;10.23;9.23;;;15.50;99.90;;;;;;4992409;28;20236;-70
2022/09/24 07:15:25;;;;;;;12.20;9.90;;;15.40;99.90;;;;;;4991114;28;20562;-69
2022/09/24 07:17:55;;;;;;;11.00;9.50;;;15.50;99.90;;;;;;5000425;28;20228;-69
2022/09/24 07:20:21;;;;;;;11.53;9.60;;;15.60;99.90;;;;;;4979407;28;20459;-73
2022/09/24 07:22:46;;;;;;;11.17;10.17;;;15.60;99.90;;;;;;4988465;28;20534;-69
2022/09/24 07:25:12;;;;;;;12.87;9.97;;;15.50;99.90;;;;;;4990065;28;20194;-69
2022/09/24 07:27:38;;;;;;;11.87;9.27;;;15.50;99.90;;;;;;4994332;28;20194;-69
2022/09/24 07:30:06;;;;;;;12.10;9.30;;;15.60;99.90;;;;;;4990367;28;20213;-68
2022/09/24 07:32:38;;;;;;;11.80;10.07;;;15.70;99.90;;;;;;4977174;28;20467;-69
2022/09/24 07:35:13;;;;;;;12.60;10.80;;;15.80;99.90;;;;;;4988337;28;20564;-67
2022/09/24 07:37:44;;;;;;;12.30;11.00;;;15.90;99.90;;;;;;4987857;28;20484;-69
2022/09/24 07:40:10;;;;;;;12.03;9.73;;;15.90;99.90;;;;;;4987324;28;20457;-69
2022/09/24 07:42:37;;;;;;;13.57;10.10;;;15.90;99.90;;;;;;4986507;28;21003;-69
2022/09/24 07:45:03;;;;;;;12.10;9.93;;;15.90;99.90;;;;;;4990231;28;20431;-67
2022/09/24 07:47:29;;;;;;;11.93;9.30;;;16.00;99.90;;;;;;4997552;28;20451;-68
2022/09/24 07:49:58;;;;;;;11.60;10.20;;;16.00;99.90;;;;;;4993716;28;20467;-70
2022/09/24 07:52:24;;;;;;;10.33;9.23;;;15.90;99.90;;;;;;4987473;28;20212;-68
2022/09/24 07:54:51;;;;;;;16.07;13.17;;;15.90;99.90;;;;;;4997491;28;20441;-70
2022/09/24 07:57:16;;;;;;;17.30;10.43;;;15.90;99.90;;;;;;4996202;28;20185;-70
2022/09/24 07:59:43;;;;;;;11.47;10.40;;;16.00;99.90;;;;;;5000036;28;20435;-71
2022/09/24 08:02:16;;;;;;;10.93;9.80;;;16.00;99.90;;;;;;5000143;28;20223;-72
2022/09/24 08:04:43;;;;;;;14.03;10.57;;;15.90;99.90;;;;;;4996530;28;20531;-71
2022/09/24 08:07:10;;;;;;;11.80;10.43;;;15.90;99.90;;;;;;4990591;28;20432;-71
2022/09/24 08:09:36;;;;;;;12.87;11.03;;;16.00;99.90;;;;;;4988242;28;20508;-71
2022/09/24 08:12:02;;;;;;;13.00;10.53;;;16.00;99.90;;;;;;5003185;28;20520;-71
2022/09/24 08:14:28;;;;;;;10.53;9.43;;;16.10;99.90;;;;;;5004326;28;20431;-71
2022/09/24 08:16:54;;;;;;;13.93;10.57;;;16.20;99.90;;;;;;5006779;28;20411;-71
2022/09/24 08:19:19;;;;;;;13.63;9.70;;;16.30;99.90;;;;;;5001222;28;20424;-71
2022/09/24 08:21:47;;;;;;;12.17;10.97;;;16.40;99.90;;;;;;5000517;28;20262;-71
2022/09/24 08:24:16;;;;;;;11.30;10.20;;;16.50;99.90;;;;;;5006374;28;20958;-69
2022/09/24 08:26:42;;;;;;;12.10;10.40;;;16.50;99.90;;;;;;5004631;28;20451;-70
2022/09/24 08:29:08;;;;;;;13.63;11.63;;;16.60;99.90;;;;;;5000345;28;20501;-70
2022/09/24 08:31:33;;;;;;;12.00;10.30;;;16.70;99.90;;;;;;5006781;28;20472;-71
2022/09/24 08:34:00;;;;;;;12.17;9.50;;;16.70;99.90;;;;;;5006455;28;20186;-70
2022/09/24 08:36:26;;;;;;;12.33;9.77;;;16.80;99.90;;;;;;4983633;28;20764;-70
2022/09/24 08:38:55;;;;;;;13.70;10.83;;;17.00;99.90;;;;;;5001962;28;20480;-70
2022/09/24 08:41:38;;;;;;;14.33;10.53;;;17.00;99.90;;;;;;4998317;28;20456;-71
2022/09/24 08:44:10;;;;;;;13.00;9.93;;;17.10;99.90;;;;;;5007265;28;20426;-70
2022/09/24 08:49:36;;;;;;;14.33;11.40;;;17.00;99.90;;;;;;5004304;28;21121;-70
2022/09/24 08:52:28;;;;;;;14.17;11.13;;;17.10;99.90;;;;;;5008511;28;20444;-70
2022/09/24 08:54:57;;;;;;;11.80;10.60;;;17.10;99.90;;;;;;5008034;28;20526;-70
2022/09/24 08:57:25;;;;;;;12.60;10.70;;;17.30;99.90;;;;;;5002567;28;20432;-71
2022/09/24 09:03:02;;;;;;;10.57;9.00;;;17.40;99.90;;;;;;4989621;28;20486;-70
2022/09/24 09:05:54;;;;;;;12.57;9.60;;;17.30;99.90;;;;;;5001200;28;20898;-70
2022/09/24 09:08:35;;;;;;;13.43;12.03;;;17.30;99.90;;;;;;5004193;28;20460;-70
2022/09/24 09:11:08;;;;;;;13.60;10.93;;;17.20;99.90;;;;;;4998299;28;20423;-71
2022/09/24 09:13:46;;;;;;;10.63;9.50;;;17.00;99.90;;;;;;5002776;28;20997;-70
2022/09/24 09:16:32;;;;;;;12.53;10.40;;;17.10;99.90;;;;;;4994754;28;20463;-70
2022/09/24 09:19:05;;;;;;;14.07;10.27;;;17.20;99.90;;;;;;5000457;28;20436;-70
2022/09/24 09:21:42;;;;;;;11.23;10.13;;;17.30;99.90;;;;;;4996393;28;20983;-70
2022/09/24 09:24:53;;;;;;;10.60;8.20;;;17.50;99.90;;;;;;5000024;28;20463;-70
2022/09/24 09:27:20;;;;;;;9.97;8.90;;;17.60;99.90;;;;;;4991296;28;20444;-70
2022/09/24 09:29:58;;;;;;;9.10;8.20;;;17.80;99.90;;;;;;5000591;28;20461;-70
2022/09/24 09:33:18;;;;;;;9.80;8.90;;;17.90;99.90;;;;;;5000596;28;20540;-70
2022/09/24 09:36:05;;;;;;;10.90;8.77;;;18.00;99.90;;;;;;4955380;28;20434;-70
2022/09/24 09:38:40;;;;;;;10.07;8.60;;;18.10;99.90;;;;;;4945087;28;20618;-70
2022/09/24 09:41:38;;;;;;;10.10;8.43;;;18.00;99.90;;;;;;4975167;28;20771;-70
2022/09/24 09:44:14;;;;;;;10.10;9.10;;;18.10;99.90;;;;;;4979805;28;20440;-70
2022/09/24 09:46:46;;;;;;;11.53;8.93;;;18.00;99.90;;;;;;4998931;28;21010;-70
2022/09/24 09:49:13;;;;;;;9.23;8.07;;;18.00;99.90;;;;;;5006526;28;20499;-70
2022/09/24 09:51:41;;;;;;;9.50;7.50;;;17.90;99.90;;;;;;5006962;28;20558;-70
2022/09/24 09:54:10;;;;;;;9.60;7.40;;;17.80;99.90;;;;;;5004794;28;20429;-71
2022/09/24 09:56:42;;;;;;;8.30;6.97;;;17.90;99.90;;;;;;5002330;28;20442;-70
2022/09/24 09:59:20;;;;;;;8.33;7.53;;;17.80;99.90;;;;;;4993542;28;20492;-71
2022/09/24 10:01:54;;;;;;;12.70;7.83;;;17.80;99.90;;;;;;5001709;28;20480;-71
2022/09/24 10:04:28;;;;;;;9.20;8.27;;;17.80;99.90;;;;;;4999306;28;20435;-70
2022/09/24 10:07:20;;;;;;;9.93;7.77;;;17.80;99.90;;;;;;5002196;28;21077;-70
2022/09/24 10:09:56;;;;;;;12.10;7.53;;;17.70;99.90;;;;;;4997951;28;20476;-71
2022/09/24 10:12:23;;;;;;;11.23;6.63;;;17.80;99.90;;;;;;4997290;28;20718;-70
2022/09/24 10:15:03;;;;;;;9.67;8.07;;;17.80;99.90;;;;;;4997274;28;20441;-71
2022/09/24 10:17:34;;;;;;;16.70;8.07;;;17.80;99.90;;;;;;5001638;28;20490;-70
2022/09/24 10:20:01;;;;;;;21.83;7.87;;;17.90;99.90;;;;;;5003613;28;20442;-71
2022/09/24 10:22:28;;;;;;;12.80;8.53;;;18.10;99.90;;;;;;5001801;28;20463;-70
2022/09/24 10:24:57;;;;;;;7.77;6.97;;;18.20;99.90;;;;;;5006110;28;20510;-71
2022/09/24 10:27:36;;;;;;;8.60;7.80;;;18.40;99.90;;;;;;5000430;28;20417;-71
2022/09/24 10:32:59;;;;;;;9.03;8.13;;;18.40;99.90;;;;;;5004833;28;20461;-70
2022/09/24 10:35:28;;;;;;;8.93;8.10;;;18.40;99.90;;;;;;5000948;28;20423;-70
2022/09/24 10:37:59;;;;;;;8.77;7.87;;;18.40;99.90;;;;;;5003136;28;20506;-70
2022/09/24 10:40:36;;;;;;;9.73;8.67;;;18.50;99.90;;;;;;5005855;28;21214;-70
2022/09/24 10:43:04;;;;;;;9.57;8.27;;;18.50;99.90;;;;;;4996864;28;20463;-71
2022/09/24 10:45:49;;;;;;;10.33;9.00;;;18.60;99.90;;;;;;4992668;28;20498;-70
2022/09/24 10:48:22;;;;;;;14.63;8.90;;;18.50;99.90;;;;;;4978917;28;20423;-70
2022/09/24 10:51:19;;;;;;;10.20;8.33;;;18.50;99.90;;;;;;5006141;28;21258;-71
2022/09/24 10:54:05;;;;;;;8.77;7.63;;;18.50;99.90;;;;;;5000285;28;20441;-71
2022/09/24 10:56:50;;;;;;;8.97;7.33;;;18.50;99.90;;;;;;5004642;28;20509;-71
2022/09/24 10:59:34;;;;;;;9.10;8.20;;;18.60;99.90;;;;;;5008782;28;20420;-71
2022/09/24 11:02:00;;;;;;;11.13;9.50;;;18.60;99.90;;;;;;5009391;28;20569;-70
2022/09/24 11:04:43;;;;;;;13.57;9.20;;;18.60;99.90;;;;;;5001503;28;20436;-70
2022/09/24 11:07:38;;;;;;;11.33;8.83;;;18.70;99.90;;;;;;5005122;28;20221;-71
2022/09/24 11:10:19;;;;;;;10.40;8.60;;;18.70;99.90;;;;;;4971367;28;20516;-71
2022/09/24 11:13:01;;;;;;;12.87;8.40;;;18.70;99.90;;;;;;5002483;28;20452;-70
2022/09/24 11:15:58;;;;;;;10.23;8.13;;;18.70;99.90;;;;;;5006920;28;20820;-70
2022/09/24 11:19:01;;;;;;;10.03;9.03;;;18.70;99.90;;;;;;5003749;28;20467;-71
2022/09/24 11:21:42;;;;;;;10.20;8.33;;;18.80;99.90;;;;;;5005822;28;20987;-69
2022/09/24 11:24:36;;;;;;;9.20;8.40;;;18.80;99.90;;;;;;5005723;28;20967;-71
2022/09/24 11:27:31;;;;;;;8.60;7.40;;;18.90;99.90;;;;;;5009104;28;20420;-70
2022/09/24 11:30:09;;;;;;;11.60;8.70;;;19.10;99.90;;;;;;5008536;28;20469;-70
2022/09/24 11:33:08;;;;;;;14.17;7.40;;;19.20;99.90;;;;;;5011824;28;20466;-72
2022/09/24 11:36:04;;;;;;;8.20;7.40;;;19.10;99.90;;;;;;5014642;28;20709;-70
2022/09/24 11:38:36;;;;;;;8.50;7.70;;;19.20;99.90;;;;;;5005519;28;20412;-70
2022/09/24 11:41:34;;;;;;;8.03;7.23;;;19.10;99.90;;;;;;4999838;28;20437;-69
2022/09/24 11:44:21;;;;;;;8.67;7.80;;;19.20;99.90;;;;;;4949605;28;20825;-70
2022/09/24 11:47:07;;;;;;;8.70;7.20;;;19.40;99.90;;;;;;4998478;28;20691;-70
2022/09/24 11:50:34;;;;;;;10.00;7.03;;;19.60;99.90;;;;;;5004951;28;20802;-69
2022/09/24 11:53:13;;;;;;;7.30;6.50;;;19.70;99.90;;;;;;4946927;28;20490;-69
2022/09/24 11:55:48;;;;;;;8.40;7.00;;;19.70;99.90;;;;;;5011126;28;20427;-69
2022/09/24 11:58:26;;;;;;;7.80;6.87;;;19.70;99.90;;;;;;5001559;28;20797;-72
2022/09/24 12:01:12;;;;;;;13.10;7.00;;;19.70;99.90;;;;;;5004378;28;20898;-70
2022/09/24 12:03:59;;;;;;;8.60;6.90;;;19.70;99.90;;;;;;5001949;28;20476;-70
2022/09/24 12:06:41;;;;;;;8.23;7.30;;;19.70;99.90;;;;;;4987991;28;20412;-70
2022/09/24 12:09:44;;;;;;;9.57;7.27;;;20.00;99.90;;;;;;4985147;28;20881;-71
2022/09/24 12:12:18;;;;;;;7.77;6.97;;;20.50;99.90;;;;;;5000538;28;21045;-71
2022/09/24 12:14:58;;;;;;;8.97;7.00;;;21.00;99.90;;;;;;4998211;28;20515;-71
2022/09/24 12:17:40;;;;;;;9.50;7.27;;;21.10;99.90;;;;;;4998523;28;20541;-71
2022/09/24 12:20:19;;;;;;;7.97;7.13;;;21.10;99.90;;;;;;4999239;28;20440;-70
2022/09/24 12:22:50;;;;;;;8.00;6.77;;;21.20;99.90;;;;;;5003077;28;20451;-71
2022/09/24 12:25:16;;;;;;;8.20;7.07;;;21.20;99.90;;;;;;4994119;28;20432;-71
2022/09/24 12:27:43;;;;;;;8.77;6.83;;;21.10;99.90;;;;;;4998451;28;20968;-71
2022/09/24 12:34:03;;;;;;;7.80;7.00;;;21.30;99.90;;;;;;4993799;28;20483;-71
2022/09/24 12:36:59;;;;;;;7.97;7.17;;;21.20;99.90;;;;;;4986503;28;20769;-71
2022/09/24 12:39:46;;;;;;;7.00;6.33;;;21.10;99.90;;;;;;4990698;28;20517;-71
2022/09/24 12:42:17;;;;;;;7.27;6.57;;;21.50;99.90;;;;;;5004531;28;20526;-71
2022/09/24 12:44:55;;;;;;;8.50;7.70;;;21.50;99.90;;;;;;5005303;28;20713;-71
2022/09/24 12:47:27;;;;;;;7.47;6.63;;;21.70;99.90;;;;;;5007053;28;20493;-71
2022/09/24 12:50:00;;;;;;;7.33;6.73;;;21.70;99.90;;;;;;4997011;28;20464;-70
2022/09/24 12:52:39;;;;;;;8.60;7.07;;;21.80;99.90;;;;;;4997784;28;20488;-71
2022/09/24 12:55:19;;;;;;;7.00;6.20;;;21.90;99.90;;;;;;5000072;28;20415;-71
2022/09/24 12:58:03;;;;;;;7.13;6.43;;;22.30;99.90;;;;;;5003927;28;20471;-71
2022/09/24 13:00:41;;;;;;;6.40;5.33;;;22.50;99.90;;;;;;5000514;28;20447;-70
2022/09/24 13:03:34;;;;;;;6.50;5.90;;;22.70;99.90;;;;;;4994337;28;20533;-71
2022/09/24 13:06:02;;;;;;;5.77;5.27;;;22.80;99.90;;;;;;5001841;28;20417;-72
2022/09/24 13:08:39;;;;;;;6.80;6.10;;;23.00;99.90;;;;;;5002175;28;20501;-71
2022/09/24 13:11:25;;;;;;;8.17;6.80;;;23.10;99.90;;;;;;5004660;28;20853;-71
2022/09/24 13:14:06;;;;;;;6.63;6.00;;;23.40;99.90;;;;;;4995301;28;20452;-72
2022/09/24 13:16:37;;;;;;;6.50;5.90;;;23.50;99.90;;;;;;5001142;28;20443;-70
2022/09/24 13:19:06;;;;;;;7.10;6.50;;;23.80;99.90;;;;;;4999643;28;20786;-71
2022/09/24 13:21:34;;;;;;;5.93;5.30;;;24.00;99.90;;;;;;5008594;28;20818;-72
2022/09/24 13:24:41;;;;;;;6.90;6.07;;;23.90;99.90;;;;;;4998348;28;20441;-71